Time;durP1;ratioP1;P1;durP2;ratioP2;P2;SDS_P1;SDS_P2;PMS_P1;PMS_P2;Temp;Humidity;BMP_temperature;BMP_pressure;BME280_temperature;BME280_humidity;BME280_pressure;Samples;Min_cycle;Max_cycle;Signal;HPM_P1;HPM_P2
2021/09/23 00:00:45;;;;;;;12.39;11.42;;;;;;;12.27;64.31;100588.33;439045;120;922949;-81
2021/09/23 00:01:45;;;;;;;12.08;11.17;;;;;;;12.25;64.41;100591.27;455310;113;922692;-81
2021/09/23 00:03:08;;;;;;;12.79;11.67;;;;;;;12.22;64.54;100586.27;461978;113;922457;-82
2021/09/23 00:05:22;;;;;;;12.14;11.11;;;;;;;12.18;64.64;100584.22;465488;112;923157;-81
2021/09/23 00:06:25;;;;;;;13.16;12.09;;;;;;;12.14;64.73;100578.34;466067;113;922495;-82
2021/09/23 00:07:29;;;;;;;12.95;11.71;;;;;;;12.12;64.84;100585.95;464486;113;922793;-81
2021/09/23 00:08:32;;;;;;;12.73;11.79;;;;;;;12.08;64.90;100577.34;466027;113;923420;-81
2021/09/23 00:09:36;;;;;;;12.13;11.12;;;;;;;12.07;64.97;100581.13;465761;113;924073;-82
2021/09/23 00:10:41;;;;;;;13.68;12.39;;;;;;;12.05;65.03;100586.01;465779;113;922678;-82
2021/09/23 00:11:45;;;;;;;12.71;11.68;;;;;;;12.02;65.07;100589.17;465562;113;923264;-80
2021/09/23 00:12:49;;;;;;;14.20;13.19;;;;;;;12.00;65.14;100582.27;465894;113;922255;-80
2021/09/23 00:13:52;;;;;;;13.23;11.83;;;;;;;11.96;65.13;100579.13;465651;113;922137;-80
2021/09/23 00:14:56;;;;;;;13.20;12.21;;;;;;;11.93;65.12;100579.59;465957;112;922206;-80
2021/09/23 00:16:00;;;;;;;12.36;11.41;;;;;;;11.91;65.15;100581.70;467954;113;922562;-80
2021/09/23 00:17:04;;;;;;;13.49;12.20;;;;;;;11.89;65.09;100586.58;466160;113;923083;-82
2021/09/23 00:18:11;;;;;;;14.18;12.94;;;;;;;11.88;65.17;100587.62;465433;113;922623;-82
2021/09/23 00:19:15;;;;;;;14.10;13.00;;;;;;;11.88;65.17;100584.90;464483;113;922838;-82
2021/09/23 00:20:23;;;;;;;13.03;11.99;;;;;;;11.89;65.23;100586.58;461825;113;922550;-82
2021/09/23 00:21:27;;;;;;;14.07;12.98;;;;;;;11.89;65.22;100586.58;466212;113;922846;-82
2021/09/23 00:22:30;;;;;;;14.63;13.36;;;;;;;11.89;65.29;100583.84;465420;113;922538;-81
2021/09/23 00:23:34;;;;;;;13.71;12.65;;;;;;;11.89;65.32;100592.04;463628;112;923017;-80
2021/09/23 00:24:38;;;;;;;13.45;12.45;;;;;;;11.91;65.30;100586.36;467566;113;922604;-82
2021/09/23 00:25:42;;;;;;;12.76;11.76;;;;;;;11.90;65.31;100582.79;462181;113;922570;-81
2021/09/23 00:26:46;;;;;;;14.04;12.61;;;;;;;11.90;65.38;100579.22;465455;113;930212;-80
2021/09/23 00:27:49;;;;;;;13.74;12.79;;;;;;;11.91;65.46;100586.36;462866;113;930430;-82
2021/09/23 00:28:53;;;;;;;13.56;12.32;;;;;;;11.92;65.49;100583.38;464851;113;922606;-81
2021/09/23 00:29:56;;;;;;;15.61;14.28;;;;;;;11.94;65.54;100589.47;466194;113;927418;-81
2021/09/23 00:31:01;;;;;;;13.74;12.46;;;;;;;11.95;65.59;100585.69;463206;113;922976;-81
2021/09/23 00:32:06;;;;;;;13.45;12.46;;;;;;;11.96;65.65;100587.33;465043;113;922501;-81
2021/09/23 00:33:09;;;;;;;13.26;12.32;;;;;;;11.97;65.70;100583.55;463131;113;923054;-81
2021/09/23 00:34:13;;;;;;;13.73;12.56;;;;;;;11.99;65.58;100584.17;466106;113;922552;-82
2021/09/23 00:35:17;;;;;;;13.60;12.46;;;;;;;12.02;65.41;100580.13;465487;113;930560;-81
2021/09/23 00:36:21;;;;;;;13.95;12.76;;;;;;;12.04;65.39;100578.03;466094;113;930327;-83
2021/09/23 00:37:25;;;;;;;13.85;12.77;;;;;;;12.06;65.52;100586.84;464754;113;930352;-82
2021/09/23 00:38:29;;;;;;;14.23;13.13;;;;;;;12.08;65.62;100579.24;467158;113;930313;-82
2021/09/23 00:39:33;;;;;;;13.64;12.64;;;;;;;12.11;65.65;100576.08;465810;113;923072;-83
2021/09/23 00:40:37;;;;;;;13.76;12.56;;;;;;;12.14;65.63;100572.87;464902;113;922432;-82
2021/09/23 00:41:41;;;;;;;13.58;12.53;;;;;;;12.17;65.53;100574.34;462653;112;930379;-82
2021/09/23 00:42:50;;;;;;;12.41;11.51;;;;;;;12.19;65.41;100575.77;466492;113;930439;-81
2021/09/23 00:43:51;;;;;;;13.38;12.34;;;;;;;12.25;65.29;100576.77;465782;113;930381;-83
2021/09/23 00:44:57;;;;;;;13.32;12.24;;;;;;;12.27;65.20;100572.76;462388;113;922808;-81
2021/09/23 00:46:01;;;;;;;13.34;12.28;;;;;;;12.29;65.20;100570.64;464478;113;923020;-82
2021/09/23 00:47:05;;;;;;;12.79;11.81;;;;;;;12.32;65.23;100577.55;463481;113;922495;-81
2021/09/23 00:48:08;;;;;;;13.30;12.12;;;;;;;12.32;65.14;100564.71;456169;115;922637;-80
2021/09/23 00:49:12;;;;;;;12.74;11.70;;;;;;;12.31;65.19;100562.20;457155;113;922722;-81
2021/09/23 00:50:20;;;;;;;13.50;12.30;;;;;;;12.28;65.19;100568.13;464224;112;930248;-82
2021/09/23 00:51:24;;;;;;;13.79;12.77;;;;;;;12.27;65.30;100566.45;464543;113;922755;-81
2021/09/23 00:52:28;;;;;;;13.82;12.82;;;;;;;12.25;65.43;100566.67;465338;113;922436;-80
2021/09/23 00:53:32;;;;;;;12.12;11.21;;;;;;;12.24;65.57;100564.99;461684;113;930440;-81
2021/09/23 00:54:36;;;;;;;12.56;11.36;;;;;;;12.24;65.51;100556.80;461671;113;922662;-82
2021/09/23 00:55:40;;;;;;;12.94;11.94;;;;;;;12.25;65.39;100563.94;465711;113;922881;-81
2021/09/23 00:56:45;;;;;;;12.78;11.74;;;;;;;12.28;65.40;100554.46;463086;113;922667;-82
2021/09/23 00:57:49;;;;;;;12.61;11.66;;;;;;;12.28;65.38;100552.56;459236;114;922551;-81
2021/09/23 00:58:53;;;;;;;13.41;12.44;;;;;;;12.30;65.42;100550.42;459763;114;922671;-82
2021/09/23 00:59:56;;;;;;;13.71;12.60;;;;;;;12.33;65.40;100554.61;460970;114;922318;-81
2021/09/23 01:01:01;;;;;;;14.61;13.26;;;;;;;12.35;65.38;100555.23;453715;116;924445;-81
2021/09/23 01:02:04;;;;;;;14.32;13.28;;;;;;;12.37;65.40;100559.39;453765;115;922116;-79
2021/09/23 01:03:11;;;;;;;14.01;12.89;;;;;;;12.39;65.43;100553.70;461683;114;922264;-81
2021/09/23 01:04:15;;;;;;;14.04;12.66;;;;;;;12.41;65.43;100560.61;459429;114;922874;-81
2021/09/23 01:05:19;;;;;;;13.66;12.58;;;;;;;12.43;65.39;100563.13;446517;116;922655;-80
2021/09/23 01:06:23;;;;;;;14.04;12.84;;;;;;;12.42;65.44;100555.97;448634;114;922672;-81
2021/09/23 01:07:27;;;;;;;13.59;12.59;;;;;;;12.42;65.45;100561.45;460620;114;922635;-81
2021/09/23 01:08:30;;;;;;;13.84;12.79;;;;;;;12.40;65.50;100561.70;460355;114;922584;-80
2021/09/23 01:09:53;;;;;;;14.61;13.42;;;;;;;12.38;65.59;100557.50;460175;114;930244;-82
2021/09/23 01:10:58;;;;;;;13.07;12.06;;;;;;;12.38;65.64;100554.77;460427;114;922822;-79
2021/09/23 01:12:04;;;;;;;12.69;11.71;;;;;;;12.34;65.70;100553.56;458069;114;922926;-81
2021/09/23 01:13:08;;;;;;;13.36;12.39;;;;;;;12.31;65.79;100564.92;460189;114;922501;-80
2021/09/23 01:14:22;;;;;;;13.74;12.52;;;;;;;12.27;65.91;100556.36;431627;122;923180;-81
2021/09/23 01:15:27;;;;;;;12.42;11.42;;;;;;;12.22;66.03;100552.63;430076;122;922743;-80
2021/09/23 01:16:32;;;;;;;12.30;11.42;;;;;;;12.17;66.10;100558.78;443290;117;930468;-81
2021/09/23 01:17:37;;;;;;;13.08;12.10;;;;;;;12.13;66.28;100561.11;442924;119;923085;-82
2021/09/23 01:18:41;;;;;;;12.85;11.84;;;;;;;12.10;66.48;100556.11;444993;119;922919;-82
2021/09/23 01:19:45;;;;;;;12.36;11.36;;;;;;;12.09;66.69;100561.78;444087;119;930356;-81
2021/09/23 01:20:51;;;;;;;12.97;12.08;;;;;;;12.10;66.80;100569.77;444510;119;930352;-80
2021/09/23 01:21:55;;;;;;;12.63;11.68;;;;;;;12.10;66.83;100555.27;435783;121;922635;-78
2021/09/23 01:22:58;;;;;;;12.29;11.16;;;;;;;12.09;66.96;100559.89;435859;119;930489;-80
2021/09/23 01:24:04;;;;;;;12.47;11.51;;;;;;;12.11;67.02;100557.78;444164;119;922938;-81
2021/09/23 01:25:09;;;;;;;12.34;11.31;;;;;;;12.13;67.07;100564.92;444534;119;922931;-80
2021/09/23 01:26:19;;;;;;;12.11;11.21;;;;;;;12.15;67.06;100560.05;425459;124;930450;-81
2021/09/23 01:27:23;;;;;;;11.83;10.99;;;;;;;12.16;67.06;100561.73;425906;119;922870;-80
2021/09/23 01:28:27;;;;;;;11.70;10.68;;;;;;;12.17;66.99;100560.67;434337;119;922886;-80
2021/09/23 01:29:35;;;;;;;11.49;10.38;;;;;;;12.18;67.03;100551.42;439218;117;922976;-80
2021/09/23 01:30:40;;;;;;;10.90;9.87;;;;;;;12.20;67.06;100552.01;443272;119;922651;-80
2021/09/23 01:31:44;;;;;;;10.11;9.21;;;;;;;12.22;67.07;100561.67;436791;121;922608;-80
2021/09/23 01:32:48;;;;;;;10.68;9.86;;;;;;;12.24;66.98;100559.52;440108;118;922689;-82
2021/09/23 01:33:53;;;;;;;10.47;9.63;;;;;;;12.27;66.96;100550.05;446822;118;922561;-81
2021/09/23 01:34:56;;;;;;;9.72;9.02;;;;;;;12.28;66.94;100547.09;447882;118;922683;-81
2021/09/23 01:36:00;;;;;;;8.82;8.22;;;;;;;12.30;66.90;100549.58;434288;120;930930;-81
2021/09/23 01:37:04;;;;;;;8.39;7.70;;;;;;;12.32;66.83;100547.47;435163;119;922436;-82
2021/09/23 01:38:09;;;;;;;8.71;8.10;;;;;;;12.34;66.76;100545.36;433703;121;930588;-82
2021/09/23 01:39:22;;;;;;;9.37;8.33;;;;;;;12.36;66.74;100554.14;441012;117;922489;-82
2021/09/23 01:40:26;;;;;;;8.34;7.71;;;;;;;12.35;66.72;100547.84;443771;119;922315;-80
2021/09/23 01:41:30;;;;;;;9.38;8.62;;;;;;;12.37;66.68;100550.35;444611;119;922511;-81
2021/09/23 01:42:34;;;;;;;8.15;7.49;;;;;;;12.37;66.59;100550.35;444139;119;930503;-81
2021/09/23 01:43:37;;;;;;;7.92;7.38;;;;;;;12.36;66.63;100551.41;443616;119;922430;-80
2021/09/23 01:44:41;;;;;;;8.09;7.49;;;;;;;12.36;66.94;100549.52;443580;119;922523;-81
2021/09/23 01:45:45;;;;;;;7.59;6.72;;;;;;;12.36;66.94;100549.52;444376;119;922545;-82
2021/09/23 01:46:49;;;;;;;7.45;6.85;;;;;;;12.37;66.72;100545.73;445735;119;930260;-82
2021/09/23 01:47:57;;;;;;;7.12;6.47;;;;;;;12.37;66.72;100540.25;443772;119;922574;-80
2021/09/23 01:49:01;;;;;;;7.31;6.29;;;;;;;12.39;66.66;100538.14;445176;119;922040;-80
2021/09/23 01:50:06;;;;;;;7.55;6.63;;;;;;;12.39;66.59;100546.34;431774;121;930191;-80
2021/09/23 01:51:10;;;;;;;6.78;6.21;;;;;;;12.39;66.57;100538.14;424672;121;926916;-81
2021/09/23 01:52:14;;;;;;;7.60;6.89;;;;;;;12.39;66.48;100537.30;435367;119;923268;-81
2021/09/23 01:53:19;;;;;;;6.90;6.26;;;;;;;12.39;66.55;100535.41;440854;119;931048;-80
2021/09/23 01:54:23;;;;;;;7.24;6.64;;;;;;;12.40;66.51;100530.78;449944;116;923277;-80
2021/09/23 01:55:27;;;;;;;7.15;6.60;;;;;;;12.40;66.49;100539.82;449643;116;930456;-81
2021/09/23 01:56:32;;;;;;;7.48;6.89;;;;;;;12.40;66.53;100541.72;436336;121;923053;-82
2021/09/23 01:57:35;;;;;;;7.46;6.81;;;;;;;12.39;66.50;100542.77;435339;120;923127;-80
2021/09/23 01:58:39;;;;;;;6.64;6.18;;;;;;;12.39;66.49;100543.61;438767;119;930557;-80
2021/09/23 01:59:43;;;;;;;7.45;6.41;;;;;;;12.40;66.50;100544.45;442094;117;930429;-82
2021/09/23 02:00:47;;;;;;;7.21;6.60;;;;;;;12.40;66.47;100538.98;436586;119;922670;-80
2021/09/23 02:01:51;;;;;;;9.16;7.19;;;;;;;12.41;66.43;100540.62;442290;118;922380;-80
2021/09/23 02:02:56;;;;;;;7.81;6.40;;;;;;;12.41;66.43;100541.47;448116;115;922485;-80
2021/09/23 02:04:11;;;;;;;7.56;6.19;;;;;;;12.41;66.41;100535.99;442929;118;922825;-81
2021/09/23 02:05:17;;;;;;;7.33;6.59;;;;;;;12.42;66.43;100536.83;447312;118;922854;-81
2021/09/23 02:06:26;;;;;;;7.03;6.44;;;;;;;12.43;66.47;100533.05;447939;117;922892;-81
2021/09/23 02:07:30;;;;;;;7.26;6.58;;;;;;;12.44;66.48;100540.19;444710;118;922661;-81
2021/09/23 02:08:35;;;;;;;6.59;5.99;;;;;;;12.44;66.45;100541.02;445193;117;922840;-81
2021/09/23 02:09:39;;;;;;;7.98;6.62;;;;;;;12.44;66.44;100534.72;447007;116;922916;-81
2021/09/23 02:10:43;;;;;;;7.47;6.74;;;;;;;12.43;66.48;100536.61;445162;117;923028;-82
2021/09/23 02:11:46;;;;;;;9.28;7.22;;;;;;;12.44;66.49;100535.56;447268;116;922850;-82
2021/09/23 02:12:50;;;;;;;7.07;6.45;;;;;;;12.43;66.46;100538.51;446180;116;922700;-81
2021/09/23 02:13:54;;;;;;;7.21;5.79;;;;;;;12.41;66.48;100529.69;444487;117;922814;-81
2021/09/23 02:14:58;;;;;;;7.62;7.01;;;;;;;12.40;66.51;100536.25;448787;118;922457;-80
2021/09/23 02:16:02;;;;;;;6.91;6.29;;;;;;;12.38;66.53;100535.63;446784;115;923018;-82
2021/09/23 02:17:07;;;;;;;7.34;6.73;;;;;;;12.36;66.59;100532.27;446110;118;922600;-80
2021/09/23 02:18:15;;;;;;;8.46;7.76;;;;;;;12.36;66.64;100535.00;436355;119;930642;-81
2021/09/23 02:19:18;;;;;;;9.73;8.96;;;;;;;12.36;66.70;100530.38;446288;117;922547;-81
2021/09/23 02:20:24;;;;;;;9.73;7.09;;;;;;;12.35;66.72;100523.23;445624;118;923129;-80
2021/09/23 02:21:28;;;;;;;7.24;6.57;;;;;;;12.36;66.74;100532.27;446110;115;922547;-81
2021/09/23 02:22:32;;;;;;;8.46;6.43;;;;;;;12.37;66.76;100534.79;446938;118;922869;-80
2021/09/23 02:23:36;;;;;;;7.92;6.86;;;;;;;12.38;66.77;100530.16;440097;119;922635;-80
2021/09/23 02:24:40;;;;;;;7.08;6.42;;;;;;;12.38;66.79;100528.27;440130;118;922602;-80
2021/09/23 02:25:43;;;;;;;6.43;5.81;;;;;;;12.38;66.80;100528.27;444421;118;922496;-81
2021/09/23 02:26:47;;;;;;;9.42;5.69;;;;;;;12.39;66.80;100537.30;443974;118;930591;-80
2021/09/23 02:27:51;;;;;;;6.81;6.24;;;;;;;12.38;66.77;100533.73;448580;115;923106;-80
2021/09/23 02:28:55;;;;;;;6.95;6.34;;;;;;;12.38;66.77;100535.63;448855;115;922973;-80
2021/09/23 02:29:58;;;;;;;7.96;6.87;;;;;;;12.38;66.70;100535.63;445835;115;922550;-81
2021/09/23 02:31:02;;;;;;;6.86;6.18;;;;;;;12.37;66.71;100536.69;445710;116;928839;-80
2021/09/23 02:32:07;;;;;;;6.31;5.41;;;;;;;12.36;66.68;100540.47;438097;120;922380;-80
2021/09/23 02:33:11;;;;;;;6.41;5.95;;;;;;;12.34;66.68;100540.73;445117;117;922976;-80
2021/09/23 02:34:14;;;;;;;6.37;5.79;;;;;;;12.31;66.75;100543.05;445710;118;922918;-81
2021/09/23 02:35:18;;;;;;;5.94;5.54;;;;;;;12.27;66.83;100547.31;448023;118;930682;-80
2021/09/23 02:36:23;;;;;;;5.84;5.46;;;;;;;12.23;66.91;100555.14;447108;118;922996;-79
2021/09/23 02:37:27;;;;;;;6.56;6.00;;;;;;;12.19;66.87;100539.39;437714;117;922171;-80
2021/09/23 02:38:30;;;;;;;7.90;6.14;;;;;;;12.15;67.01;100546.39;442519;119;930436;-80
2021/09/23 02:39:35;;;;;;;6.69;6.07;;;;;;;12.13;67.15;100549.33;438230;120;930500;-83
2021/09/23 02:40:39;;;;;;;6.30;5.81;;;;;;;12.10;67.32;100555.27;438872;120;922792;-81
2021/09/23 02:41:42;;;;;;;6.34;5.75;;;;;;;12.11;67.50;100556.95;434303;121;930634;-81
2021/09/23 02:42:46;;;;;;;6.10;5.70;;;;;;;12.10;67.63;100556.11;434258;120;930678;-82
2021/09/23 02:43:49;;;;;;;8.31;5.49;;;;;;;12.12;67.69;100550.42;443675;117;930483;-80
2021/09/23 02:44:53;;;;;;;6.08;5.66;;;;;;;12.14;67.70;100561.95;446051;118;928762;-80
2021/09/23 02:45:58;;;;;;;7.35;5.34;;;;;;;12.16;67.72;100554.37;445378;116;930610;-82
2021/09/23 02:47:02;;;;;;;6.11;5.63;;;;;;;12.18;67.73;100548.69;446517;116;922470;-82
2021/09/23 02:48:06;;;;;;;5.93;5.42;;;;;;;12.20;67.71;100546.54;444744;118;922626;-80
2021/09/23 02:49:09;;;;;;;6.06;5.62;;;;;;;12.23;67.87;100543.38;446232;118;923091;-80
2021/09/23 02:50:13;;;;;;;6.34;5.78;;;;;;;12.23;67.87;100543.38;447018;116;931069;-81
2021/09/23 02:51:17;;;;;;;5.76;5.36;;;;;;;12.24;67.47;100548.59;446430;118;923161;-82
2021/09/23 02:52:21;;;;;;;6.13;5.63;;;;;;;12.24;67.37;100547.78;446938;118;923079;-79
2021/09/23 02:53:25;;;;;;;6.66;6.18;;;;;;;12.25;67.35;100552.16;444988;118;923106;-82
2021/09/23 02:54:29;;;;;;;5.86;5.36;;;;;;;12.25;67.31;100552.16;445437;118;930640;-81
2021/09/23 02:55:32;;;;;;;6.33;5.89;;;;;;;12.25;67.35;100553.00;445892;116;930618;-79
2021/09/23 02:56:37;;;;;;;6.55;6.12;;;;;;;12.25;67.31;100546.69;445892;118;930603;-80
2021/09/23 02:57:40;;;;;;;7.16;6.59;;;;;;;12.25;67.31;100546.69;447389;117;924286;-80
2021/09/23 02:58:47;;;;;;;6.87;6.37;;;;;;;12.25;67.38;100541.23;443964;119;923183;-81
2021/09/23 02:59:51;;;;;;;6.43;5.98;;;;;;;12.26;67.40;100540.17;444241;119;930581;-81
2021/09/23 03:00:55;;;;;;;5.99;5.59;;;;;;;12.26;67.39;100543.74;444385;118;923667;-80
2021/09/23 03:01:59;;;;;;;6.81;6.31;;;;;;;12.27;67.38;100542.69;443072;118;930526;-80
2021/09/23 03:03:04;;;;;;;7.06;6.46;;;;;;;12.28;67.30;100548.99;443830;118;922676;-80
2021/09/23 03:04:08;;;;;;;7.19;6.64;;;;;;;12.29;67.29;100537.00;444028;119;922880;-79
2021/09/23 03:05:12;;;;;;;7.39;6.74;;;;;;;12.30;67.30;100539.48;443238;119;922594;-81
2021/09/23 03:06:16;;;;;;;7.36;6.74;;;;;;;12.30;67.34;100544.11;443774;119;930564;-82
2021/09/23 03:07:19;;;;;;;7.45;6.86;;;;;;;12.31;67.34;100546.63;443655;119;923099;-80
2021/09/23 03:08:23;;;;;;;6.85;6.30;;;;;;;12.32;67.35;100547.47;442894;119;922932;-80
2021/09/23 03:09:27;;;;;;;9.63;6.55;;;;;;;12.33;67.29;100546.41;443995;119;930442;-83
2021/09/23 03:10:31;;;;;;;7.17;6.62;;;;;;;12.32;67.26;100542.00;444190;119;922559;-83
2021/09/23 03:11:35;;;;;;;6.41;5.88;;;;;;;12.31;67.22;100545.79;444160;119;922612;-82
2021/09/23 03:12:39;;;;;;;7.16;6.38;;;;;;;12.30;67.27;100544.11;442742;119;922512;-80
2021/09/23 03:13:43;;;;;;;7.49;6.81;;;;;;;12.30;67.29;100538.64;440892;120;922534;-81
2021/09/23 03:14:46;;;;;;;6.69;6.16;;;;;;;12.30;67.02;100535.91;441532;118;930573;-81
2021/09/23 03:15:50;;;;;;;7.39;6.82;;;;;;;12.30;67.02;100535.91;441474;120;930471;-81
2021/09/23 03:16:54;;;;;;;7.83;7.16;;;;;;;12.29;67.06;100534.27;441275;120;922554;-80
2021/09/23 03:17:58;;;;;;;6.93;6.35;;;;;;;12.27;66.97;100534.48;441438;119;930533;-80
2021/09/23 03:19:02;;;;;;;7.66;6.95;;;;;;;12.23;66.93;100536.01;447124;117;922332;-80
2021/09/23 03:20:07;;;;;;;8.37;7.06;;;;;;;12.20;67.01;100539.18;443694;119;922306;-79
2021/09/23 03:21:10;;;;;;;6.80;6.29;;;;;;;12.17;66.90;100538.81;444025;119;928715;-78
2021/09/23 03:22:17;;;;;;;8.13;7.36;;;;;;;12.13;67.01;100548.53;442645;119;924180;-82
2021/09/23 03:23:22;;;;;;;6.93;6.36;;;;;;;12.10;67.02;100547.91;442878;119;930249;-81
2021/09/23 03:24:25;;;;;;;7.66;7.06;;;;;;;12.08;67.04;100552.75;443198;117;922504;-81
2021/09/23 03:25:30;;;;;;;7.02;6.35;;;;;;;12.04;67.12;100551.54;443724;119;922110;-80
2021/09/23 03:26:34;;;;;;;7.59;6.99;;;;;;;12.01;67.20;100551.16;448466;118;922157;-80
2021/09/23 03:27:37;;;;;;;7.61;6.91;;;;;;;11.95;67.25;100547.43;444051;119;922486;-81
2021/09/23 03:28:41;;;;;;;7.96;7.28;;;;;;;11.90;67.33;100547.27;442303;119;930543;-80
2021/09/23 03:29:45;;;;;;;7.65;7.07;;;;;;;11.86;67.41;100547.92;443914;119;930445;-83
2021/09/23 03:30:49;;;;;;;7.79;7.16;;;;;;;11.81;67.53;100555.95;433998;121;930689;-78
2021/09/23 03:31:52;;;;;;;7.37;6.71;;;;;;;11.77;67.64;100558.30;434337;119;923129;-80
2021/09/23 03:32:56;;;;;;;7.32;6.76;;;;;;;11.73;67.73;100556.22;441398;118;930994;-80
2021/09/23 03:34:00;;;;;;;7.52;6.97;;;;;;;11.69;67.87;100553.07;440244;120;930482;-81
2021/09/23 03:35:04;;;;;;;7.31;6.58;;;;;;;11.66;68.06;100550.80;444063;119;923566;-81
2021/09/23 03:36:08;;;;;;;7.63;7.03;;;;;;;11.63;68.20;100549.34;443437;119;930451;-79
2021/09/23 03:37:12;;;;;;;7.36;6.63;;;;;;;11.63;68.34;100551.27;444133;119;923042;-82
2021/09/23 03:38:16;;;;;;;6.87;6.41;;;;;;;11.62;68.53;100547.69;442664;119;922637;-79
2021/09/23 03:39:19;;;;;;;6.78;6.32;;;;;;;11.62;68.62;100550.42;441588;120;930503;-81
2021/09/23 03:40:25;;;;;;;7.56;7.01;;;;;;;11.62;68.70;100550.42;441036;119;923538;-81
2021/09/23 03:41:30;;;;;;;6.95;6.45;;;;;;;11.63;68.77;100551.27;440475;120;923006;-82
2021/09/23 03:42:34;;;;;;;6.89;6.36;;;;;;;11.64;68.79;100544.72;440930;120;922638;-80
2021/09/23 03:43:37;;;;;;;6.82;6.36;;;;;;;11.63;68.82;100543.88;432739;122;930695;-80
2021/09/23 03:44:41;;;;;;;6.99;6.49;;;;;;;11.64;68.90;100541.98;432867;120;923191;-86
2021/09/23 03:45:46;;;;;;;7.30;6.81;;;;;;;11.64;68.98;100544.72;436220;121;922622;-81
2021/09/23 03:46:55;;;;;;;7.52;6.93;;;;;;;11.63;69.15;100543.06;436226;119;922841;-81
2021/09/23 03:47:56;;;;;;;7.67;7.16;;;;;;;11.64;69.18;100541.98;441852;118;923130;-81
2021/09/23 03:49:00;;;;;;;8.58;7.94;;;;;;;11.66;69.23;100540.72;452184;117;923113;-81
2021/09/23 03:50:05;;;;;;;8.08;7.43;;;;;;;11.69;69.29;100547.61;435210;121;922943;-80
2021/09/23 03:51:09;;;;;;;7.03;6.47;;;;;;;11.73;69.30;100540.70;433002;120;923190;-82
2021/09/23 03:52:12;;;;;;;7.72;6.59;;;;;;;11.77;69.25;100546.54;450320;117;922537;-81
2021/09/23 03:53:16;;;;;;;8.74;6.76;;;;;;;11.81;69.20;100551.33;450728;116;922847;-81
2021/09/23 03:54:20;;;;;;;7.46;6.82;;;;;;;11.84;69.08;100544.59;450173;117;930473;-80
2021/09/23 03:55:23;;;;;;;8.81;6.78;;;;;;;11.89;69.03;100540.12;439138;120;930755;-82
2021/09/23 03:56:29;;;;;;;6.98;6.28;;;;;;;11.93;68.97;100543.23;436772;119;930532;-82
2021/09/23 03:57:33;;;;;;;6.66;6.16;;;;;;;11.96;68.96;100538.15;440304;120;922851;-81
2021/09/23 03:58:36;;;;;;;6.65;6.16;;;;;;;11.97;68.79;100553.48;439617;119;922652;-81
2021/09/23 03:59:40;;;;;;;6.87;6.36;;;;;;;11.97;68.78;100538.98;447894;117;930480;-81
2021/09/23 04:00:44;;;;;;;6.95;6.31;;;;;;;11.98;68.86;100541.50;446885;117;930580;-82
2021/09/23 04:01:49;;;;;;;10.46;7.06;;;;;;;12.00;68.93;100541.28;455044;115;930202;-81
2021/09/23 04:02:53;;;;;;;7.31;6.32;;;;;;;12.01;69.00;100542.97;447282;117;930076;-79
2021/09/23 04:03:57;;;;;;;6.88;6.28;;;;;;;12.03;69.06;100538.09;439256;117;922405;-79
2021/09/23 04:05:01;;;;;;;7.32;6.65;;;;;;;12.04;69.00;100540.61;440374;117;922323;-84
2021/09/23 04:06:05;;;;;;;7.02;6.50;;;;;;;12.05;68.99;100535.98;446363;117;922263;-82
2021/09/23 04:07:09;;;;;;;6.51;6.01;;;;;;;12.07;68.91;100544.80;440190;119;922296;-84
2021/09/23 04:08:14;;;;;;;7.39;6.74;;;;;;;12.08;68.94;100547.28;429871;120;922204;-83
2021/09/23 04:09:17;;;;;;;6.90;6.40;;;;;;;12.09;68.86;100539.92;438147;118;922141;-80
2021/09/23 04:10:22;;;;;;;7.17;6.66;;;;;;;12.09;68.80;100546.23;434684;122;930322;-79
2021/09/23 04:11:26;;;;;;;6.38;5.98;;;;;;;12.10;68.70;100541.60;435741;120;922706;-81
2021/09/23 04:12:31;;;;;;;7.52;6.77;;;;;;;12.11;68.72;100540.55;443227;119;923034;-81
2021/09/23 04:13:35;;;;;;;7.14;6.50;;;;;;;12.11;68.69;100541.38;447109;117;922451;-80
2021/09/23 04:14:39;;;;;;;7.38;6.89;;;;;;;12.13;68.69;100540.33;435823;121;922534;-80
2021/09/23 04:15:43;;;;;;;7.25;6.71;;;;;;;12.13;68.65;100543.87;436996;120;930254;-81
2021/09/23 04:16:48;;;;;;;7.68;7.08;;;;;;;12.13;68.69;100547.44;435715;119;922866;-81
2021/09/23 04:17:53;;;;;;;6.83;6.33;;;;;;;12.15;68.73;100541.76;441043;117;922979;-82
2021/09/23 04:18:56;;;;;;;7.14;6.64;;;;;;;12.17;68.64;100536.08;451548;117;922612;-82
2021/09/23 04:20:00;;;;;;;7.25;6.75;;;;;;;12.17;68.60;100530.61;433081;121;922947;-79
2021/09/23 04:21:06;;;;;;;7.31;6.81;;;;;;;12.19;68.67;100533.93;432852;119;930808;-80
2021/09/23 04:22:10;;;;;;;7.04;6.54;;;;;;;12.19;68.69;100531.20;437915;117;923111;-80
2021/09/23 04:23:14;;;;;;;7.09;6.59;;;;;;;12.19;68.65;100533.93;435500;120;922843;-80
2021/09/23 04:24:18;;;;;;;6.92;6.41;;;;;;;12.18;68.68;100533.13;440408;117;930581;-80
2021/09/23 04:25:22;;;;;;;6.99;6.53;;;;;;;12.20;68.69;100530.98;439579;119;922658;-79
2021/09/23 04:26:26;;;;;;;6.55;6.11;;;;;;;12.21;68.66;100540.86;447533;117;922960;-80
2021/09/23 04:27:30;;;;;;;7.58;7.01;;;;;;;12.23;68.65;100537.91;435637;120;923015;-81
2021/09/23 04:28:33;;;;;;;6.94;6.46;;;;;;;12.24;68.63;100539.58;429776;122;923198;-81
2021/09/23 04:29:39;;;;;;;8.17;7.58;;;;;;;12.25;68.66;100541.23;445015;115;922786;-82
2021/09/23 04:30:45;;;;;;;9.53;8.84;;;;;;;12.25;68.62;100539.33;447033;117;930557;-82
2021/09/23 04:31:49;;;;;;;8.56;7.95;;;;;;;12.27;68.58;100541.84;435035;121;922818;-81
2021/09/23 04:32:52;;;;;;;8.06;7.49;;;;;;;12.28;68.47;100540.79;434272;118;922231;-81
2021/09/23 04:33:56;;;;;;;8.24;7.64;;;;;;;12.29;68.38;100547.94;447884;117;930111;-81
2021/09/23 04:35:00;;;;;;;8.04;7.37;;;;;;;12.30;68.37;100546.84;443109;118;922425;-80
2021/09/23 04:36:04;;;;;;;7.98;7.35;;;;;;;12.30;68.27;100539.48;441892;117;922988;-81
2021/09/23 04:37:07;;;;;;;7.74;7.24;;;;;;;12.31;68.05;100545.79;440803;117;922579;-80
2021/09/23 04:38:10;;;;;;;8.89;8.29;;;;;;;12.29;67.93;100547.94;436839;119;922864;-79
2021/09/23 04:39:16;;;;;;;9.22;8.29;;;;;;;12.26;68.01;100540.17;434808;119;922998;-80
2021/09/23 04:40:21;;;;;;;8.79;7.84;;;;;;;12.23;67.82;100538.74;442012;119;928953;-81
2021/09/23 04:41:25;;;;;;;8.10;7.56;;;;;;;12.20;67.89;100552.01;445614;117;922960;-80
2021/09/23 04:42:29;;;;;;;8.42;7.84;;;;;;;12.19;67.98;100539.39;449590;117;922583;-80
2021/09/23 04:43:35;;;;;;;7.71;7.21;;;;;;;12.19;68.00;100542.13;451424;115;922501;-79
2021/09/23 04:44:40;;;;;;;9.24;8.66;;;;;;;12.20;68.00;100549.27;446924;117;922878;-80
2021/09/23 04:45:43;;;;;;;8.87;8.12;;;;;;;12.20;68.06;100543.80;435021;120;930551;-79
2021/09/23 04:46:48;;;;;;;8.09;7.57;;;;;;;12.20;68.08;100543.80;442226;118;922970;-80
2021/09/23 04:47:51;;;;;;;8.63;8.03;;;;;;;12.22;68.15;100545.27;441398;120;922898;-78
2021/09/23 04:48:55;;;;;;;7.92;7.41;;;;;;;12.24;68.16;100540.39;442394;119;922598;-79
2021/09/23 04:49:58;;;;;;;8.40;7.70;;;;;;;12.26;67.93;100548.38;444184;118;922534;-81
2021/09/23 04:51:02;;;;;;;8.34;7.74;;;;;;;12.27;67.84;100550.89;444300;117;930504;-80
2021/09/23 04:52:06;;;;;;;8.81;8.14;;;;;;;12.28;67.74;100547.09;438473;119;922680;-80
2021/09/23 04:53:11;;;;;;;9.28;8.50;;;;;;;12.29;67.65;100547.94;431385;119;922816;-79
2021/09/23 04:54:14;;;;;;;8.36;7.66;;;;;;;12.30;67.79;100546.84;439989;117;922484;-80
2021/09/23 04:55:18;;;;;;;9.11;8.49;;;;;;;12.32;67.87;100547.47;438247;119;922654;-80